首页
METAR-TAF:

METAR-TAF

机场 :

拉伯克, 得克萨斯州, 美国

纬度: 33-40-03N, 经度: 101-49-17W, 海拔: 1000米

当前天气观测

该预报发布于1小时和1分钟前的08:53 UTC
风速6节,风向东北
温度 4°C
湿度 87%
气压 1019 hPa
能見度: 16.1公里
阴天层高于600英尺

METAR: KLBB 220853Z 05006KT 10SM OVC006 04/02 A3008 RMK AO2 RAE02 SLP180 P0000 60001 T00390022 55004

时间: 03:54 (09:54 UTC)

预报

该预报发布于2小时和9分钟前的07:45 UTC
预报有效从22日的 08点(UTC)到 23日的 06点(UTC)
风速9节,风向东北
能見度: 10公里
散云层高于700英尺
阴天层高于10000英尺
短暂存在
从 22日的 08点(UTC)到 22日的 11点(UTC)
多云层高于800英尺
从 22日的 1100点(UTC)
风速11节,风向
能見度: 10公里
阴天层高于800英尺
从 22日的 1700点(UTC)
风速10节,风向
能見度: 10公里
阴天层高于1500英尺

TAF: KLBB 220745Z 2208/2306 04009KT P6SM SCT007 OVC100 TEMPO 2208/2211 BKN008 FM221100 01011KT P6SM OVC008 FM221700 01010KT P6SM OVC015

超过4000个机场的气象观测和天气预报(METAR&TAF报告)。

可查询的气象台以黄色和红色小点在地图上表示。

将鼠标移到小点上方,可查看气象台名称。

然后点击查看天气观测和预报。

如需切换地图:点击带黑十字的绿色按钮放大地图;点击带横线的绿色按钮缩小地图;或者点击绿色箭头查看邻近地区的地图。


METAR-TAF: